sensor_id;sensor_type;location;lat;lon;timestamp;P1;durP1;ratioP1;P2;durP2;ratioP2
29538;SDS011;16482;51.046;4.498;2023-07-20T00:01:41;3.60;;;2.72;;
29538;SDS011;16482;51.046;4.498;2023-07-20T00:04:20;3.22;;;2.63;;
29538;SDS011;16482;51.046;4.498;2023-07-20T00:06:56;3.65;;;2.85;;
29538;SDS011;16482;51.046;4.498;2023-07-20T00:09:22;3.58;;;2.70;;
29538;SDS011;16482;51.046;4.498;2023-07-20T00:11:49;4.35;;;2.88;;
29538;SDS011;16482;51.046;4.498;2023-07-20T00:14:26;3.47;;;2.40;;
29538;SDS011;16482;51.046;4.498;2023-07-20T00:17:05;4.25;;;2.88;;
29538;SDS011;16482;51.046;4.498;2023-07-20T00:19:34;3.85;;;3.10;;
29538;SDS011;16482;51.046;4.498;2023-07-20T00:22:02;5.47;;;3.35;;
29538;SDS011;16482;51.046;4.498;2023-07-20T00:24:32;3.53;;;2.65;;
29538;SDS011;16482;51.046;4.498;2023-07-20T00:27:07;4.30;;;2.65;;
29538;SDS011;16482;51.046;4.498;2023-07-20T00:29:33;3.55;;;2.80;;
29538;SDS011;16482;51.046;4.498;2023-07-20T00:32:09;4.30;;;2.90;;
29538;SDS011;16482;51.046;4.498;2023-07-20T00:34:44;3.13;;;2.70;;
29538;SDS011;16482;51.046;4.498;2023-07-20T00:37:13;3.30;;;2.60;;
29538;SDS011;16482;51.046;4.498;2023-07-20T00:39:50;4.43;;;3.00;;
29538;SDS011;16482;51.046;4.498;2023-07-20T00:42:19;4.18;;;2.90;;
29538;SDS011;16482;51.046;4.498;2023-07-20T00:44:49;6.38;;;3.10;;
29538;SDS011;16482;51.046;4.498;2023-07-20T00:47:15;4.35;;;3.00;;
29538;SDS011;16482;51.046;4.498;2023-07-20T00:49:51;3.78;;;2.88;;
29538;SDS011;16482;51.046;4.498;2023-07-20T00:52:22;3.95;;;2.83;;
29538;SDS011;16482;51.046;4.498;2023-07-20T00:54:53;4.07;;;2.97;;
29538;SDS011;16482;51.046;4.498;2023-07-20T00:57:28;5.63;;;2.85;;
29538;SDS011;16482;51.046;4.498;2023-07-20T00:59:58;3.63;;;2.88;;
29538;SDS011;16482;51.046;4.498;2023-07-20T01:02:24;5.15;;;2.88;;
29538;SDS011;16482;51.046;4.498;2023-07-20T01:04:59;3.35;;;2.65;;
29538;SDS011;16482;51.046;4.498;2023-07-20T01:07:32;3.95;;;2.78;;
29538;SDS011;16482;51.046;4.498;2023-07-20T01:10:19;5.05;;;2.92;;
29538;SDS011;16482;51.046;4.498;2023-07-20T01:13:00;4.55;;;3.25;;
29538;SDS011;16482;51.046;4.498;2023-07-20T01:15:41;3.88;;;2.95;;
29538;SDS011;16482;51.046;4.498;2023-07-20T01:20:39;3.83;;;2.70;;
29538;SDS011;16482;51.046;4.498;2023-07-20T01:26:37;3.38;;;2.90;;
29538;SDS011;16482;51.046;4.498;2023-07-20T01:32:29;4.03;;;3.08;;
29538;SDS011;16482;51.046;4.498;2023-07-20T01:35:00;3.30;;;2.83;;
29538;SDS011;16482;51.046;4.498;2023-07-20T01:37:40;3.70;;;2.85;;
29538;SDS011;16482;51.046;4.498;2023-07-20T01:40:19;4.22;;;3.17;;
29538;SDS011;16482;51.046;4.498;2023-07-20T01:42:57;3.92;;;2.95;;
29538;SDS011;16482;51.046;4.498;2023-07-20T01:45:33;4.28;;;3.10;;
29538;SDS011;16482;51.046;4.498;2023-07-20T01:48:14;3.70;;;2.83;;
29538;SDS011;16482;51.046;4.498;2023-07-20T01:50:49;3.97;;;2.90;;
29538;SDS011;16482;51.046;4.498;2023-07-20T01:53:18;4.10;;;2.80;;
29538;SDS011;16482;51.046;4.498;2023-07-20T01:55:46;4.68;;;2.75;;
29538;SDS011;16482;51.046;4.498;2023-07-20T01:58:21;3.30;;;2.55;;
29538;SDS011;16482;51.046;4.498;2023-07-20T02:00:50;3.25;;;2.60;;
29538;SDS011;16482;51.046;4.498;2023-07-20T02:03:19;4.03;;;3.25;;
29538;SDS011;16482;51.046;4.498;2023-07-20T02:05:47;3.38;;;2.90;;
29538;SDS011;16482;51.046;4.498;2023-07-20T02:08:13;3.88;;;2.80;;
29538;SDS011;16482;51.046;4.498;2023-07-20T02:10:38;3.95;;;2.97;;
29538;SDS011;16482;51.046;4.498;2023-07-20T02:13:04;4.28;;;2.92;;
29538;SDS011;16482;51.046;4.498;2023-07-20T02:15:38;4.20;;;3.00;;
29538;SDS011;16482;51.046;4.498;2023-07-20T02:18:17;3.63;;;2.80;;
29538;SDS011;16482;51.046;4.498;2023-07-20T02:20:48;3.75;;;3.13;;
29538;SDS011;16482;51.046;4.498;2023-07-20T02:23:24;4.43;;;2.83;;
29538;SDS011;16482;51.046;4.498;2023-07-20T02:25:53;4.13;;;3.15;;
29538;SDS011;16482;51.046;4.498;2023-07-20T02:28:29;4.22;;;3.30;;
29538;SDS011;16482;51.046;4.498;2023-07-20T02:30:57;3.53;;;2.85;;
29538;SDS011;16482;51.046;4.498;2023-07-20T02:33:33;4.70;;;3.05;;
29538;SDS011;16482;51.046;4.498;2023-07-20T02:36:06;4.78;;;3.10;;
29538;SDS011;16482;51.046;4.498;2023-07-20T02:38:35;4.35;;;3.20;;
29538;SDS011;16482;51.046;4.498;2023-07-20T02:41:10;3.75;;;2.63;;
29538;SDS011;16482;51.046;4.498;2023-07-20T02:43:47;4.07;;;2.92;;
29538;SDS011;16482;51.046;4.498;2023-07-20T02:46:23;3.55;;;2.92;;
29538;SDS011;16482;51.046;4.498;2023-07-20T02:48:59;3.88;;;2.80;;
29538;SDS011;16482;51.046;4.498;2023-07-20T02:51:34;3.17;;;2.75;;
29538;SDS011;16482;51.046;4.498;2023-07-20T02:54:10;3.75;;;2.70;;
29538;SDS011;16482;51.046;4.498;2023-07-20T02:56:38;3.08;;;2.60;;
29538;SDS011;16482;51.046;4.498;2023-07-20T02:59:07;3.63;;;2.92;;
29538;SDS011;16482;51.046;4.498;2023-07-20T03:01:35;2.95;;;2.65;;
29538;SDS011;16482;51.046;4.498;2023-07-20T03:04:11;3.83;;;3.10;;
29538;SDS011;16482;51.046;4.498;2023-07-20T03:06:37;4.18;;;3.00;;
29538;SDS011;16482;51.046;4.498;2023-07-20T03:09:12;4.13;;;2.80;;
29538;SDS011;16482;51.046;4.498;2023-07-20T03:11:38;4.60;;;3.10;;
29538;SDS011;16482;51.046;4.498;2023-07-20T03:14:13;4.63;;;3.25;;
29538;SDS011;16482;51.046;4.498;2023-07-20T03:19:14;3.33;;;2.65;;
29538;SDS011;16482;51.046;4.498;2023-07-20T03:21:40;3.75;;;3.35;;
29538;SDS011;16482;51.046;4.498;2023-07-20T03:24:16;4.47;;;3.10;;
29538;SDS011;16482;51.046;4.498;2023-07-20T03:26:50;3.53;;;2.80;;
29538;SDS011;16482;51.046;4.498;2023-07-20T03:29:26;4.15;;;3.00;;
29538;SDS011;16482;51.046;4.498;2023-07-20T03:32:02;5.10;;;3.10;;
29538;SDS011;16482;51.046;4.498;2023-07-20T03:34:28;5.25;;;3.13;;
29538;SDS011;16482;51.046;4.498;2023-07-20T03:37:03;3.60;;;3.03;;
29538;SDS011;16482;51.046;4.498;2023-07-20T03:39:30;4.07;;;2.90;;
29538;SDS011;16482;51.046;4.498;2023-07-20T03:42:03;4.57;;;3.33;;
29538;SDS011;16482;51.046;4.498;2023-07-20T03:44:30;4.45;;;3.38;;
29538;SDS011;16482;51.046;4.498;2023-07-20T03:47:06;3.58;;;2.80;;
29538;SDS011;16482;51.046;4.498;2023-07-20T03:49:35;3.65;;;2.95;;
29538;SDS011;16482;51.046;4.498;2023-07-20T03:52:01;3.92;;;2.90;;
29538;SDS011;16482;51.046;4.498;2023-07-20T03:54:28;4.20;;;3.20;;
29538;SDS011;16482;51.046;4.498;2023-07-20T03:56:57;4.78;;;3.50;;
29538;SDS011;16482;51.046;4.498;2023-07-20T03:59:34;4.07;;;3.10;;
29538;SDS011;16482;51.046;4.498;2023-07-20T04:02:10;3.88;;;3.05;;
29538;SDS011;16482;51.046;4.498;2023-07-20T04:04:49;5.07;;;3.10;;
29538;SDS011;16482;51.046;4.498;2023-07-20T04:07:25;3.42;;;3.05;;
29538;SDS011;16482;51.046;4.498;2023-07-20T04:09:53;3.40;;;2.80;;
29538;SDS011;16482;51.046;4.498;2023-07-20T04:12:29;3.83;;;2.97;;
29538;SDS011;16482;51.046;4.498;2023-07-20T04:14:55;3.83;;;3.05;;
29538;SDS011;16482;51.046;4.498;2023-07-20T04:17:24;4.38;;;2.90;;
29538;SDS011;16482;51.046;4.498;2023-07-20T04:20:00;4.82;;;3.50;;
29538;SDS011;16482;51.046;4.498;2023-07-20T04:22:36;3.85;;;2.90;;
29538;SDS011;16482;51.046;4.498;2023-07-20T04:25:03;4.03;;;3.00;;
29538;SDS011;16482;51.046;4.498;2023-07-20T04:27:29;4.85;;;3.25;;
29538;SDS011;16482;51.046;4.498;2023-07-20T04:29:58;4.18;;;3.00;;
29538;SDS011;16482;51.046;4.498;2023-07-20T04:32:29;3.60;;;2.80;;
29538;SDS011;16482;51.046;4.498;2023-07-20T04:35:06;6.03;;;3.30;;
29538;SDS011;16482;51.046;4.498;2023-07-20T04:37:42;4.18;;;3.10;;
29538;SDS011;16482;51.046;4.498;2023-07-20T04:40:17;3.83;;;2.97;;
29538;SDS011;16482;51.046;4.498;2023-07-20T04:42:46;4.80;;;3.45;;
29538;SDS011;16482;51.046;4.498;2023-07-20T04:45:14;3.58;;;3.05;;
29538;SDS011;16482;51.046;4.498;2023-07-20T04:47:50;3.78;;;3.05;;
29538;SDS011;16482;51.046;4.498;2023-07-20T04:50:17;6.45;;;3.00;;
29538;SDS011;16482;51.046;4.498;2023-07-20T04:52:46;3.65;;;3.25;;
29538;SDS011;16482;51.046;4.498;2023-07-20T04:55:13;3.97;;;2.95;;
29538;SDS011;16482;51.046;4.498;2023-07-20T04:57:49;6.20;;;3.17;;
29538;SDS011;16482;51.046;4.498;2023-07-20T05:00:18;3.53;;;3.17;;
29538;SDS011;16482;51.046;4.498;2023-07-20T05:02:55;5.00;;;3.33;;
29538;SDS011;16482;51.046;4.498;2023-07-20T05:05:21;3.95;;;3.25;;
29538;SDS011;16482;51.046;4.498;2023-07-20T05:07:56;3.25;;;2.95;;
29538;SDS011;16482;51.046;4.498;2023-07-20T05:10:23;4.60;;;3.65;;
29538;SDS011;16482;51.046;4.498;2023-07-20T05:13:00;3.90;;;3.22;;
29538;SDS011;16482;51.046;4.498;2023-07-20T05:15:36;4.13;;;3.40;;
29538;SDS011;16482;51.046;4.498;2023-07-20T05:18:16;3.90;;;3.08;;
29538;SDS011;16482;51.046;4.498;2023-07-20T05:20:51;4.93;;;3.30;;
29538;SDS011;16482;51.046;4.498;2023-07-20T05:23:20;3.85;;;3.13;;
29538;SDS011;16482;51.046;4.498;2023-07-20T05:25:55;4.68;;;3.45;;
29538;SDS011;16482;51.046;4.498;2023-07-20T05:28:22;3.88;;;3.08;;
29538;SDS011;16482;51.046;4.498;2023-07-20T05:31:02;5.90;;;3.03;;
29538;SDS011;16482;51.046;4.498;2023-07-20T05:33:31;4.63;;;3.40;;
29538;SDS011;16482;51.046;4.498;2023-07-20T05:36:07;4.97;;;3.50;;
29538;SDS011;16482;51.046;4.498;2023-07-20T05:38:43;3.75;;;3.15;;
29538;SDS011;16482;51.046;4.498;2023-07-20T05:41:19;4.88;;;3.38;;
29538;SDS011;16482;51.046;4.498;2023-07-20T05:43:53;4.55;;;3.20;;
29538;SDS011;16482;51.046;4.498;2023-07-20T05:46:31;6.03;;;3.60;;
29538;SDS011;16482;51.046;4.498;2023-07-20T05:48:59;3.90;;;3.15;;
29538;SDS011;16482;51.046;4.498;2023-07-20T05:51:36;4.53;;;3.30;;
29538;SDS011;16482;51.046;4.498;2023-07-20T05:54:12;6.85;;;3.95;;
29538;SDS011;16482;51.046;4.498;2023-07-20T05:56:41;6.00;;;3.25;;
29538;SDS011;16482;51.046;4.498;2023-07-20T05:59:10;7.50;;;3.38;;
29538;SDS011;16482;51.046;4.498;2023-07-20T06:01:38;4.75;;;3.20;;
29538;SDS011;16482;51.046;4.498;2023-07-20T06:04:04;5.35;;;3.00;;
29538;SDS011;16482;51.046;4.498;2023-07-20T06:06:30;4.90;;;3.38;;
29538;SDS011;16482;51.046;4.498;2023-07-20T06:09:00;4.40;;;3.30;;
29538;SDS011;16482;51.046;4.498;2023-07-20T06:11:39;4.78;;;3.10;;
29538;SDS011;16482;51.046;4.498;2023-07-20T06:14:15;4.57;;;3.15;;
29538;SDS011;16482;51.046;4.498;2023-07-20T06:16:51;4.68;;;3.00;;
29538;SDS011;16482;51.046;4.498;2023-07-20T06:19:18;4.60;;;3.30;;
29538;SDS011;16482;51.046;4.498;2023-07-20T06:21:54;5.30;;;3.25;;
29538;SDS011;16482;51.046;4.498;2023-07-20T06:24:27;4.88;;;3.20;;
29538;SDS011;16482;51.046;4.498;2023-07-20T06:27:03;3.90;;;2.83;;
29538;SDS011;16482;51.046;4.498;2023-07-20T06:29:31;4.50;;;3.15;;
29538;SDS011;16482;51.046;4.498;2023-07-20T06:31:59;4.68;;;3.40;;
29538;SDS011;16482;51.046;4.498;2023-07-20T06:34:25;3.25;;;2.95;;
29538;SDS011;16482;51.046;4.498;2023-07-20T06:36:53;3.70;;;3.20;;
29538;SDS011;16482;51.046;4.498;2023-07-20T06:39:19;7.80;;;3.60;;
29538;SDS011;16482;51.046;4.498;2023-07-20T06:41:54;6.43;;;3.25;;
29538;SDS011;16482;51.046;4.498;2023-07-20T06:44:20;3.40;;;2.70;;
29538;SDS011;16482;51.046;4.498;2023-07-20T06:46:57;4.40;;;3.10;;
29538;SDS011;16482;51.046;4.498;2023-07-20T06:49:30;6.75;;;3.42;;
29538;SDS011;16482;51.046;4.498;2023-07-20T06:51:59;5.85;;;3.45;;
29538;SDS011;16482;51.046;4.498;2023-07-20T06:54:30;4.15;;;3.00;;
29538;SDS011;16482;51.046;4.498;2023-07-20T06:56:56;4.07;;;3.00;;
29538;SDS011;16482;51.046;4.498;2023-07-20T06:59:32;6.82;;;2.78;;
29538;SDS011;16482;51.046;4.498;2023-07-20T07:01:58;5.13;;;2.97;;
29538;SDS011;16482;51.046;4.498;2023-07-20T07:04:32;5.10;;;3.17;;
29538;SDS011;16482;51.046;4.498;2023-07-20T07:07:00;4.05;;;2.80;;
29538;SDS011;16482;51.046;4.498;2023-07-20T07:09:28;6.25;;;3.10;;
29538;SDS011;16482;51.046;4.498;2023-07-20T07:11:57;5.38;;;2.90;;
29538;SDS011;16482;51.046;4.498;2023-07-20T07:14:33;4.63;;;3.00;;
29538;SDS011;16482;51.046;4.498;2023-07-20T07:16:59;2.90;;;2.60;;
29538;SDS011;16482;51.046;4.498;2023-07-20T07:19:26;3.50;;;2.70;;
29538;SDS011;16482;51.046;4.498;2023-07-20T07:21:52;4.85;;;2.90;;
29538;SDS011;16482;51.046;4.498;2023-07-20T07:24:18;4.18;;;2.50;;
29538;SDS011;16482;51.046;4.498;2023-07-20T07:26:52;6.95;;;2.83;;
29538;SDS011;16482;51.046;4.498;2023-07-20T07:29:29;9.63;;;3.00;;
29538;SDS011;16482;51.046;4.498;2023-07-20T07:31:55;6.40;;;2.72;;
29538;SDS011;16482;51.046;4.498;2023-07-20T07:34:21;3.38;;;2.67;;
29538;SDS011;16482;51.046;4.498;2023-07-20T07:36:47;4.72;;;2.35;;
29538;SDS011;16482;51.046;4.498;2023-07-20T07:39:22;7.53;;;2.83;;
29538;SDS011;16482;51.046;4.498;2023-07-20T07:41:59;3.50;;;2.70;;
29538;SDS011;16482;51.046;4.498;2023-07-20T07:44:25;4.53;;;2.30;;
29538;SDS011;16482;51.046;4.498;2023-07-20T07:46:51;3.30;;;2.38;;
29538;SDS011;16482;51.046;4.498;2023-07-20T07:49:18;6.03;;;2.72;;
29538;SDS011;16482;51.046;4.498;2023-07-20T07:51:44;9.98;;;2.30;;
29538;SDS011;16482;51.046;4.498;2023-07-20T07:54:12;3.22;;;2.15;;
29538;SDS011;16482;51.046;4.498;2023-07-20T07:56:38;3.35;;;2.33;;
29538;SDS011;16482;51.046;4.498;2023-07-20T07:59:04;4.43;;;2.58;;
29538;SDS011;16482;51.046;4.498;2023-07-20T08:01:33;6.35;;;2.38;;
29538;SDS011;16482;51.046;4.498;2023-07-20T08:04:01;4.95;;;2.78;;
29538;SDS011;16482;51.046;4.498;2023-07-20T08:06:39;7.47;;;2.80;;
29538;SDS011;16482;51.046;4.498;2023-07-20T08:09:11;2.90;;;2.35;;
29538;SDS011;16482;51.046;4.498;2023-07-20T08:11:44;4.03;;;2.50;;
29538;SDS011;16482;51.046;4.498;2023-07-20T08:14:13;3.90;;;2.10;;
29538;SDS011;16482;51.046;4.498;2023-07-20T08:16:49;3.78;;;2.25;;
29538;SDS011;16482;51.046;4.498;2023-07-20T08:19:15;3.60;;;2.20;;
29538;SDS011;16482;51.046;4.498;2023-07-20T08:21:50;2.13;;;1.90;;
29538;SDS011;16482;51.046;4.498;2023-07-20T08:24:26;3.40;;;2.20;;
29538;SDS011;16482;51.046;4.498;2023-07-20T08:26:52;3.08;;;1.90;;
29538;SDS011;16482;51.046;4.498;2023-07-20T08:29:21;5.18;;;2.47;;
29538;SDS011;16482;51.046;4.498;2023-07-20T08:31:47;3.33;;;2.03;;
29538;SDS011;16482;51.046;4.498;2023-07-20T08:34:13;4.05;;;2.22;;
29538;SDS011;16482;51.046;4.498;2023-07-20T08:36:42;4.63;;;2.10;;
29538;SDS011;16482;51.046;4.498;2023-07-20T08:39:11;3.70;;;2.10;;
29538;SDS011;16482;51.046;4.498;2023-07-20T08:41:47;4.22;;;1.95;;
29538;SDS011;16482;51.046;4.498;2023-07-20T08:44:17;6.13;;;2.15;;
29538;SDS011;16482;51.046;4.498;2023-07-20T08:46:43;4.32;;;2.20;;
29538;SDS011;16482;51.046;4.498;2023-07-20T08:49:13;4.55;;;2.10;;
29538;SDS011;16482;51.046;4.498;2023-07-20T08:51:41;5.07;;;2.00;;
29538;SDS011;16482;51.046;4.498;2023-07-20T08:54:15;9.10;;;1.90;;
29538;SDS011;16482;51.046;4.498;2023-07-20T08:57:36;3.38;;;2.00;;
29538;SDS011;16482;51.046;4.498;2023-07-20T09:00:05;3.88;;;1.75;;
29538;SDS011;16482;51.046;4.498;2023-07-20T09:02:36;4.63;;;1.80;;
29538;SDS011;16482;51.046;4.498;2023-07-20T09:05:05;2.97;;;1.80;;
29538;SDS011;16482;51.046;4.498;2023-07-20T09:07:33;3.28;;;1.60;;
29538;SDS011;16482;51.046;4.498;2023-07-20T09:10:01;3.42;;;1.83;;
29538;SDS011;16482;51.046;4.498;2023-07-20T09:12:33;3.35;;;1.77;;
29538;SDS011;16482;51.046;4.498;2023-07-20T09:15:01;3.90;;;1.90;;
29538;SDS011;16482;51.046;4.498;2023-07-20T09:17:27;4.75;;;1.70;;
29538;SDS011;16482;51.046;4.498;2023-07-20T09:19:53;2.38;;;1.70;;
29538;SDS011;16482;51.046;4.498;2023-07-20T09:22:19;3.20;;;1.70;;
29538;SDS011;16482;51.046;4.498;2023-07-20T09:24:46;3.42;;;1.90;;
29538;SDS011;16482;51.046;4.498;2023-07-20T09:27:14;3.30;;;1.60;;
29538;SDS011;16482;51.046;4.498;2023-07-20T09:29:52;3.00;;;1.85;;
29538;SDS011;16482;51.046;4.498;2023-07-20T09:32:21;2.85;;;1.92;;
29538;SDS011;16482;51.046;4.498;2023-07-20T09:34:49;4.50;;;1.90;;
29538;SDS011;16482;51.046;4.498;2023-07-20T09:37:22;6.63;;;1.90;;
29538;SDS011;16482;51.046;4.498;2023-07-20T09:39:52;5.10;;;2.30;;
29538;SDS011;16482;51.046;4.498;2023-07-20T09:42:21;1.90;;;1.70;;
29538;SDS011;16482;51.046;4.498;2023-07-20T09:44:50;5.22;;;2.20;;
29538;SDS011;16482;51.046;4.498;2023-07-20T09:47:23;3.22;;;2.08;;
29538;SDS011;16482;51.046;4.498;2023-07-20T09:49:57;2.83;;;2.05;;
29538;SDS011;16482;51.046;4.498;2023-07-20T09:52:28;3.28;;;2.00;;
29538;SDS011;16482;51.046;4.498;2023-07-20T09:54:55;2.30;;;1.83;;
29538;SDS011;16482;51.046;4.498;2023-07-20T09:57:21;2.92;;;1.88;;
29538;SDS011;16482;51.046;4.498;2023-07-20T09:59:54;2.88;;;1.95;;
29538;SDS011;16482;51.046;4.498;2023-07-20T10:02:21;3.78;;;1.60;;
29538;SDS011;16482;51.046;4.498;2023-07-20T10:04:51;4.78;;;1.80;;
29538;SDS011;16482;51.046;4.498;2023-07-20T10:07:21;2.33;;;1.80;;
29538;SDS011;16482;51.046;4.498;2023-07-20T10:09:50;2.30;;;1.67;;
29538;SDS011;16482;51.046;4.498;2023-07-20T10:12:21;3.08;;;1.90;;
29538;SDS011;16482;51.046;4.498;2023-07-20T10:14:53;2.75;;;1.95;;
29538;SDS011;16482;51.046;4.498;2023-07-20T10:17:26;2.60;;;1.98;;
29538;SDS011;16482;51.046;4.498;2023-07-20T10:19:54;4.43;;;1.88;;
29538;SDS011;16482;51.046;4.498;2023-07-20T10:22:26;2.17;;;1.90;;
29538;SDS011;16482;51.046;4.498;2023-07-20T10:24:54;2.83;;;1.83;;
29538;SDS011;16482;51.046;4.498;2023-07-20T10:27:26;3.38;;;1.83;;
29538;SDS011;16482;51.046;4.498;2023-07-20T10:29:53;2.20;;;1.75;;
29538;SDS011;16482;51.046;4.498;2023-07-20T10:32:20;2.10;;;1.70;;
29538;SDS011;16482;51.046;4.498;2023-07-20T10:34:52;2.20;;;1.90;;
29538;SDS011;16482;51.046;4.498;2023-07-20T10:40:31;3.90;;;1.77;;
29538;SDS011;16482;51.046;4.498;2023-07-20T10:43:20;4.40;;;1.70;;
29538;SDS011;16482;51.046;4.498;2023-07-20T10:45:49;4.07;;;1.88;;
29538;SDS011;16482;51.046;4.498;2023-07-20T10:48:18;4.50;;;1.95;;
29538;SDS011;16482;51.046;4.498;2023-07-20T10:51:08;2.00;;;1.80;;
29538;SDS011;16482;51.046;4.498;2023-07-20T10:53:41;4.15;;;1.88;;
29538;SDS011;16482;51.046;4.498;2023-07-20T10:58:34;3.67;;;2.05;;
29538;SDS011;16482;51.046;4.498;2023-07-20T11:01:01;1.83;;;1.67;;
29538;SDS011;16482;51.046;4.498;2023-07-20T11:03:29;1.85;;;1.75;;
29538;SDS011;16482;51.046;4.498;2023-07-20T11:05:59;2.15;;;1.80;;
29538;SDS011;16482;51.046;4.498;2023-07-20T11:13:56;2.78;;;1.90;;
29538;SDS011;16482;51.046;4.498;2023-07-20T11:16:37;2.72;;;2.00;;
29538;SDS011;16482;51.046;4.498;2023-07-20T11:19:05;2.15;;;1.73;;
29538;SDS011;16482;51.046;4.498;2023-07-20T11:21:42;4.68;;;1.73;;
29538;SDS011;16482;51.046;4.498;2023-07-20T11:24:10;2.17;;;1.60;;
29538;SDS011;16482;51.046;4.498;2023-07-20T11:26:47;3.08;;;1.90;;
29538;SDS011;16482;51.046;4.498;2023-07-20T11:29:17;3.55;;;1.90;;
29538;SDS011;16482;51.046;4.498;2023-07-20T11:31:45;2.70;;;1.80;;
29538;SDS011;16482;51.046;4.498;2023-07-20T11:34:16;2.17;;;1.80;;
29538;SDS011;16482;51.046;4.498;2023-07-20T11:36:44;2.97;;;1.63;;
29538;SDS011;16482;51.046;4.498;2023-07-20T11:39:12;2.25;;;1.75;;
29538;SDS011;16482;51.046;4.498;2023-07-20T11:41:43;2.58;;;1.60;;
29538;SDS011;16482;51.046;4.498;2023-07-20T11:44:12;1.90;;;1.75;;
29538;SDS011;16482;51.046;4.498;2023-07-20T11:46:41;2.30;;;1.92;;
29538;SDS011;16482;51.046;4.498;2023-07-20T11:49:09;2.30;;;1.60;;
29538;SDS011;16482;51.046;4.498;2023-07-20T11:51:35;1.65;;;1.55;;
29538;SDS011;16482;51.046;4.498;2023-07-20T11:54:05;1.70;;;1.60;;
29538;SDS011;16482;51.046;4.498;2023-07-20T11:56:32;4.43;;;1.67;;
29538;SDS011;16482;51.046;4.498;2023-07-20T11:59:01;1.48;;;1.38;;
29538;SDS011;16482;51.046;4.498;2023-07-20T12:01:30;3.05;;;1.80;;
29538;SDS011;16482;51.046;4.498;2023-07-20T12:04:01;2.45;;;1.73;;
29538;SDS011;16482;51.046;4.498;2023-07-20T12:06:32;2.67;;;1.70;;
29538;SDS011;16482;51.046;4.498;2023-07-20T12:09:00;1.60;;;1.38;;
29538;SDS011;16482;51.046;4.498;2023-07-20T12:11:33;2.95;;;1.60;;
29538;SDS011;16482;51.046;4.498;2023-07-20T12:14:03;1.70;;;1.60;;
29538;SDS011;16482;51.046;4.498;2023-07-20T12:16:32;3.38;;;1.50;;
29538;SDS011;16482;51.046;4.498;2023-07-20T12:19:01;1.42;;;1.30;;
29538;SDS011;16482;51.046;4.498;2023-07-20T12:21:30;1.63;;;1.52;;
29538;SDS011;16482;51.046;4.498;2023-07-20T12:23:57;2.15;;;1.50;;
29538;SDS011;16482;51.046;4.498;2023-07-20T12:26:30;2.95;;;1.60;;
29538;SDS011;16482;51.046;4.498;2023-07-20T12:29:00;1.60;;;1.50;;
29538;SDS011;16482;51.046;4.498;2023-07-20T12:31:33;1.55;;;1.45;;
29538;SDS011;16482;51.046;4.498;2023-07-20T12:34:01;1.42;;;1.30;;
29538;SDS011;16482;51.046;4.498;2023-07-20T12:36:35;2.58;;;1.50;;
29538;SDS011;16482;51.046;4.498;2023-07-20T12:39:01;3.28;;;1.58;;
29538;SDS011;16482;51.046;4.498;2023-07-20T12:41:27;2.22;;;1.70;;
29538;SDS011;16482;51.046;4.498;2023-07-20T12:44:00;2.95;;;1.70;;
29538;SDS011;16482;51.046;4.498;2023-07-20T12:46:26;2.08;;;1.60;;
29538;SDS011;16482;51.046;4.498;2023-07-20T12:48:54;1.63;;;1.50;;
29538;SDS011;16482;51.046;4.498;2023-07-20T12:51:20;3.63;;;1.60;;
29538;SDS011;16482;51.046;4.498;2023-07-20T12:53:46;2.95;;;1.70;;
29538;SDS011;16482;51.046;4.498;2023-07-20T12:56:12;1.65;;;1.55;;
29538;SDS011;16482;51.046;4.498;2023-07-20T12:58:38;1.50;;;1.40;;
29538;SDS011;16482;51.046;4.498;2023-07-20T13:01:04;1.70;;;1.52;;
29538;SDS011;16482;51.046;4.498;2023-07-20T13:03:30;2.13;;;1.65;;
29538;SDS011;16482;51.046;4.498;2023-07-20T13:05:56;2.03;;;1.80;;
29538;SDS011;16482;51.046;4.498;2023-07-20T13:08:23;1.90;;;1.50;;
29538;SDS011;16482;51.046;4.498;2023-07-20T13:10:50;1.63;;;1.52;;
29538;SDS011;16482;51.046;4.498;2023-07-20T13:13:16;1.60;;;1.50;;
29538;SDS011;16482;51.046;4.498;2023-07-20T13:15:43;2.13;;;1.60;;
29538;SDS011;16482;51.046;4.498;2023-07-20T13:18:12;1.73;;;1.48;;
29538;SDS011;16482;51.046;4.498;2023-07-20T13:20:40;1.63;;;1.52;;
29538;SDS011;16482;51.046;4.498;2023-07-20T13:23:06;2.67;;;1.70;;
29538;SDS011;16482;51.046;4.498;2023-07-20T13:25:32;2.58;;;1.88;;
29538;SDS011;16482;51.046;4.498;2023-07-20T13:27:58;6.00;;;1.70;;
29538;SDS011;16482;51.046;4.498;2023-07-20T13:30:24;2.63;;;1.63;;
29538;SDS011;16482;51.046;4.498;2023-07-20T13:32:50;2.45;;;1.67;;
29538;SDS011;16482;51.046;4.498;2023-07-20T13:35:16;2.60;;;1.40;;
29538;SDS011;16482;51.046;4.498;2023-07-20T13:37:42;2.38;;;1.70;;
29538;SDS011;16482;51.046;4.498;2023-07-20T13:40:08;2.28;;;1.65;;
29538;SDS011;16482;51.046;4.498;2023-07-20T13:42:38;2.33;;;1.83;;
29538;SDS011;16482;51.046;4.498;2023-07-20T13:45:05;2.30;;;1.67;;
29538;SDS011;16482;51.046;4.498;2023-07-20T13:47:32;2.40;;;1.88;;
29538;SDS011;16482;51.046;4.498;2023-07-20T13:49:58;2.10;;;1.73;;
29538;SDS011;16482;51.046;4.498;2023-07-20T13:52:24;2.70;;;1.83;;
29538;SDS011;16482;51.046;4.498;2023-07-20T13:54:50;2.60;;;1.95;;
29538;SDS011;16482;51.046;4.498;2023-07-20T13:57:16;2.63;;;1.70;;
29538;SDS011;16482;51.046;4.498;2023-07-20T13:59:42;4.80;;;1.80;;
29538;SDS011;16482;51.046;4.498;2023-07-20T14:02:08;1.95;;;1.75;;
29538;SDS011;16482;51.046;4.498;2023-07-20T14:04:35;3.95;;;2.05;;
29538;SDS011;16482;51.046;4.498;2023-07-20T14:07:01;3.83;;;1.75;;
29538;SDS011;16482;51.046;4.498;2023-07-20T14:09:27;2.95;;;1.80;;
29538;SDS011;16482;51.046;4.498;2023-07-20T14:11:53;2.03;;;1.83;;
29538;SDS011;16482;51.046;4.498;2023-07-20T14:14:19;1.70;;;1.60;;
29538;SDS011;16482;51.046;4.498;2023-07-20T14:16:45;2.88;;;1.98;;
29538;SDS011;16482;51.046;4.498;2023-07-20T14:19:11;3.53;;;1.95;;
29538;SDS011;16482;51.046;4.498;2023-07-20T14:21:37;2.10;;;1.90;;
29538;SDS011;16482;51.046;4.498;2023-07-20T14:24:03;2.65;;;2.20;;
29538;SDS011;16482;51.046;4.498;2023-07-20T14:26:32;2.42;;;2.10;;
29538;SDS011;16482;51.046;4.498;2023-07-20T14:29:00;2.10;;;1.92;;
29538;SDS011;16482;51.046;4.498;2023-07-20T14:31:26;2.20;;;1.80;;
29538;SDS011;16482;51.046;4.498;2023-07-20T14:33:55;2.78;;;1.70;;
29538;SDS011;16482;51.046;4.498;2023-07-20T14:36:21;1.75;;;1.65;;
29538;SDS011;16482;51.046;4.498;2023-07-20T14:38:48;2.08;;;1.83;;
29538;SDS011;16482;51.046;4.498;2023-07-20T14:41:13;3.17;;;2.20;;
29538;SDS011;16482;51.046;4.498;2023-07-20T14:43:39;3.20;;;2.30;;
29538;SDS011;16482;51.046;4.498;2023-07-20T14:46:05;2.50;;;2.13;;
29538;SDS011;16482;51.046;4.498;2023-07-20T14:48:31;2.17;;;1.98;;
29538;SDS011;16482;51.046;4.498;2023-07-20T14:50:57;2.50;;;2.30;;
29538;SDS011;16482;51.046;4.498;2023-07-20T14:53:23;3.05;;;2.05;;
29538;SDS011;16482;51.046;4.498;2023-07-20T14:55:53;2.40;;;2.20;;
29538;SDS011;16482;51.046;4.498;2023-07-20T14:58:24;2.20;;;2.00;;
29538;SDS011;16482;51.046;4.498;2023-07-20T15:00:50;2.42;;;2.03;;
29538;SDS011;16482;51.046;4.498;2023-07-20T15:03:16;2.15;;;1.98;;
29538;SDS011;16482;51.046;4.498;2023-07-20T15:05:42;2.75;;;2.22;;
29538;SDS011;16482;51.046;4.498;2023-07-20T15:08:10;2.30;;;2.10;;
29538;SDS011;16482;51.046;4.498;2023-07-20T15:10:36;3.20;;;2.10;;
29538;SDS011;16482;51.046;4.498;2023-07-20T15:13:02;2.92;;;2.20;;
29538;SDS011;16482;51.046;4.498;2023-07-20T15:15:29;4.65;;;2.40;;
29538;SDS011;16482;51.046;4.498;2023-07-20T15:17:55;2.85;;;2.20;;
29538;SDS011;16482;51.046;4.498;2023-07-20T15:20:21;2.45;;;2.17;;
29538;SDS011;16482;51.046;4.498;2023-07-20T15:22:47;3.67;;;2.60;;
29538;SDS011;16482;51.046;4.498;2023-07-20T15:25:13;2.00;;;1.80;;
29538;SDS011;16482;51.046;4.498;2023-07-20T15:27:42;1.92;;;1.75;;
29538;SDS011;16482;51.046;4.498;2023-07-20T15:30:08;2.35;;;2.15;;